Weather reports worldwide

Advertisment
Concordia Sagittaria, Italy (16107): temperature & dewpoint: 13.07.2018 13:00:00 - 19.07.2018 13:00:00 (CEST)Concordia Sagittaria, Italy (16107): wind speed: 13.07.2018 13:00:00 - 19.07.2018 13:00:00 (CEST)Concordia Sagittaria, Italy (16107): wind direction: 13.07.2018 13:00:00 - 19.07.2018 13:00:00 (CEST)Concordia Sagittaria, Italy (16107): reduced air pressure: 13.07.2018 13:00:00 - 19.07.2018 13:00:00 (CEST)Concordia Sagittaria, Italy (16107): precipitation: 13.07.2018 13:00:00 - 19.07.2018 13:00:00 (CEST)
Date & Time tt [°C] td [°C] ff [km/h] ff [kn] dd ppp [hPa] rr [mm]
19.07.2018 13:00:00 27,8 21,1 8 4 NE 1017,5 -
19.07.2018 12:00:00 26,5 20,3 8 4 NE 1017,4 -
19.07.2018 11:00:00 24,1 20,8 8 4 NNE 1017,4 -
19.07.2018 10:00:00 21,9 20,1 11 6 NNE 1017,5 -
19.07.2018 09:00:00 19,8 18,1 8 4 NNE 1017,6 -
19.07.2018 08:00:00 19,2 17,5 4 2 N 1017,4 0,0
19.07.2018 07:00:00 19,8 18,1 4 2 N 1017,5 -
19.07.2018 06:00:00 20,5 18,7 5 3 N 1017,6 -
19.07.2018 05:00:00 20,9 19,1 4 2 N 1017,7 -
19.07.2018 04:00:00 21,0 19,2 4 2 N 1017,8 -
19.07.2018 03:00:00 21,6 19,8 0 0 N 1017,7 -
19.07.2018 02:00:00 21,8 20,0 0 0 N 1017,6 0,0
19.07.2018 01:00:00 22,3 20,2 0 0 N 1016,9 -
19.07.2018 00:00:00 22,9 18,8 4 2 ENE 1016,8 -
18.07.2018 23:00:00 25,4 19,2 4 2 SE 1016,4 -
18.07.2018 22:00:00 28,3 18,9 8 4 SSE 1016,1 -
18.07.2018 21:00:00 29,6 21,0 8 4 S 1016,0 -
18.07.2018 20:00:00 30,8 18,8 15 8 SSE 1016,2 0,0
18.07.2018 19:00:00 31,0 20,9 9 5 S 1016,5 -
18.07.2018 18:00:00 30,9 22,7 9 5 SSW 1016,9 -
18.07.2018 17:00:00 30,8 21,5 8 4 S 1017,2 -
18.07.2018 16:00:00 30,5 21,5 5 3 SE 1017,7 -
18.07.2018 15:00:00 29,7 20,5 13 7 SE 1017,9 -
18.07.2018 14:00:00 28,9 18,6 5 3 NNE 1018,1 0,0
18.07.2018 13:00:00 27,4 17,2 4 2 NNW 1018,3 -
18.07.2018 12:00:00 25,7 19,3 2 1 E 1018,3 -
18.07.2018 11:00:00 23,4 19,3 5 3 N 1018,4 -
18.07.2018 10:00:00 21,1 19,2 5 3 NNE 1018,0 -
18.07.2018 09:00:00 18,7 16,8 5 3 NNE 1018,0 -
18.07.2018 08:00:00 17,8 16,1 4 2 NNE 1017,9 0,0
18.07.2018 07:00:00 18,2 16,5 5 3 N 1017,6 -
18.07.2018 06:00:00 18,2 16,5 8 4 NE 1017,5 -
18.07.2018 05:00:00 19,0 17,3 4 2 N 1017,7 -
18.07.2018 04:00:00 19,4 17,7 4 2 NNW 1017,7 -
18.07.2018 03:00:00 20,5 18,7 5 3 N 1017,5 -
18.07.2018 02:00:00 21,5 19,7 2 1 N 1017,4 0,0
18.07.2018 01:00:00 21,9 19,2 4 2 NNE 1016,9 -
18.07.2018 00:00:00 23,6 19,1 0 0 N 1016,5 -
17.07.2018 23:00:00 26,4 19,7 2 1 S 1015,8 -
17.07.2018 22:00:00 28,0 20,8 8 4 WSW 1015,2 -
17.07.2018 21:00:00 29,4 18,2 4 2 S 1015,2 -
17.07.2018 20:00:00 29,4 19,9 11 6 SW 1015,0 0,0
17.07.2018 19:00:00 28,9 19,5 13 7 W 1014,9 -
17.07.2018 18:00:00 28,7 20,4 13 7 S 1015,1 -
17.07.2018 17:00:00 28,6 20,3 5 3 SW 1015,2 -
17.07.2018 16:00:00 29,2 20,3 5 3 SW 1015,4 -
17.07.2018 15:00:00 28,2 19,4 4 2 WNW 1015,6 -
17.07.2018 14:00:00 27,3 20,1 4 2 S 1015,4 0,0
17.07.2018 13:00:00 25,7 18,8 0 0 N 1015,2 -
17.07.2018 12:00:00 24,7 20,3 9 5 NNW 1015,3 -
17.07.2018 11:00:00 23,1 20,4 8 4 NNE 1015,4 -
17.07.2018 10:00:00 21,4 19,6 4 2 N 1015,3 -
17.07.2018 09:00:00 19,1 17,4 0 0 N 1015,1 -
17.07.2018 08:00:00 18,6 16,9 2 1 WSW 1014,4 0,0
17.07.2018 07:00:00 18,8 17,1 0 0 N 1014,0 -
17.07.2018 06:00:00 19,1 17,4 4 2 NNW 1014,2 -
17.07.2018 05:00:00 19,1 17,4 0 0 N 1014,7 -
17.07.2018 04:00:00 19,3 17,6 2 1 SSW 1014,7 -
17.07.2018 03:00:00 19,7 18,0 5 3 NW 1014,6 -
17.07.2018 02:00:00 20,2 18,4 0 0 N 1014,5 0,0
17.07.2018 01:00:00 20,4 18,6 0 0 N 1014,7 -
17.07.2018 00:00:00 21,8 19,7 5 3 SW 1014,9 -
16.07.2018 23:00:00 23,0 20,8 4 2 SW 1013,7 -
16.07.2018 22:00:00 24,2 20,1 8 4 SSE 1014,8 -
16.07.2018 21:00:00 24,7 19,5 5 3 S 1014,7 -
16.07.2018 20:00:00 25,4 19,5 4 2 ESE 1014,5 0,0
16.07.2018 19:00:00 26,1 19,9 11 6 SSE 1015,2 -
16.07.2018 18:00:00 27,3 19,8 11 6 SE 1015,5 -
16.07.2018 17:00:00 28,8 17,9 9 5 SSE 1015,3 -
16.07.2018 16:00:00 28,6 18,3 5 3 S 1016,0 -
16.07.2018 15:00:00 28,2 18,2 4 2 E 1016,4 -
16.07.2018 14:00:00 27,0 18,2 5 3 S 1016,7 0,0
16.07.2018 13:00:00 25,5 18,1 4 2 NW 1016,9 -
16.07.2018 12:00:00 24,2 19,8 8 4 WNW 1017,3 -
16.07.2018 11:00:00 22,3 19,4 8 4 WNW 1017,6 -
16.07.2018 10:00:00 20,1 18,3 2 1 WNW 1017,2 -
16.07.2018 09:00:00 19,6 17,9 13 7 NNW 1017,0 -
16.07.2018 08:00:00 19,6 17,9 5 3 NW 1017,4 0,0
16.07.2018 07:00:00 19,3 17,6 4 2 W 1017,5 -
16.07.2018 06:00:00 18,7 17,0 8 4 NNE 1017,3 -
16.07.2018 05:00:00 18,5 16,8 4 2 NW 1017,5 -
16.07.2018 04:00:00 18,9 17,2 5 3 NNE 1018,3 -
16.07.2018 03:00:00 19,8 18,1 15 8 NNW 1019,1 -
16.07.2018 02:00:00 19,8 18,1 9 5 WNW 1019,4 0,0
16.07.2018 01:00:00 21,8 18,1 15 8 NW 1019,1 -
16.07.2018 00:00:00 23,1 18,4 8 4 N 1017,9 -
15.07.2018 23:00:00 23,3 18,8 15 8 NNE 1016,5 -
15.07.2018 22:00:00 26,3 18,6 13 7 NNE 1017,0 -
15.07.2018 21:00:00 28,8 21,3 4 2 ENE 1016,8 -
15.07.2018 20:00:00 28,8 21,0 8 4 SE 1016,6 0,0
15.07.2018 19:00:00 28,5 20,2 9 5 S 1016,9 -
15.07.2018 18:00:00 29,2 18,6 11 6 SSE 1017,3 -
15.07.2018 17:00:00 29,0 20,1 2 1 E 1017,4 -
15.07.2018 16:00:00 28,6 20,8 4 2 NW 1018,1 -
15.07.2018 15:00:00 27,2 21,4 11 6 NNE 1018,5 -
15.07.2018 14:00:00 25,8 20,5 9 5 NNE 1019,1 0,0
15.07.2018 13:00:00 25,4 19,9 11 6 NNW 1018,9 -
15.07.2018 12:00:00 25,0 21,2 13 7 N 1019,0 -
15.07.2018 11:00:00 22,8 19,3 9 5 N 1019,1 -
15.07.2018 10:00:00 21,4 19,6 4 2 N 1018,7 -
15.07.2018 09:00:00 20,8 19,0 4 2 N 1018,7 -
15.07.2018 08:00:00 20,4 18,6 5 3 NW 1018,6 0,0
15.07.2018 07:00:00 20,4 18,6 5 3 NNW 1018,8 -
15.07.2018 06:00:00 20,5 18,7 4 2 W 1019,0 -
15.07.2018 05:00:00 20,3 18,5 5 3 NW 1018,9 -
15.07.2018 04:00:00 20,7 18,9 0 0 N 1019,1 -
15.07.2018 03:00:00 21,4 19,6 4 2 WNW 1019,8 -
15.07.2018 02:00:00 21,5 19,7 5 3 NW 1019,7 0,0
15.07.2018 01:00:00 21,5 19,7 8 4 W 1020,3 -
15.07.2018 00:00:00 22,6 20,8 8 4 WNW 1021,0 -
14.07.2018 23:00:00 22,6 20,3 0 0 N 1019,2 -
14.07.2018 22:00:00 25,2 19,5 4 2 N 1018,8 -
14.07.2018 21:00:00 27,4 19,9 5 3 SSE 1018,9 -
14.07.2018 20:00:00 29,6 20,4 4 2 SE 1019,2 0,0
14.07.2018 19:00:00 29,4 20,5 9 5 E 1019,4 -
14.07.2018 18:00:00 29,8 20,6 9 5 SE 1019,9 -
14.07.2018 17:00:00 30,1 20,6 4 2 SE 1020,3 -
14.07.2018 16:00:00 29,7 20,5 8 4 S 1020,8 -
14.07.2018 15:00:00 28,7 19,6 0 0 N 1021,4 -
14.07.2018 14:00:00 28,2 20,9 4 2 ENE 1021,8 0,0
14.07.2018 13:00:00 27,3 21,1 2 1 WSW 1021,8 -
14.07.2018 12:00:00 26,9 21,4 0 0 N 1022,1 -
14.07.2018 11:00:00 25,1 21,5 5 3 NW 1022,2 -
14.07.2018 10:00:00 21,9 20,1 4 2 NNW 1022,3 -
14.07.2018 09:00:00 20,7 18,9 8 4 WNW 1022,2 -
14.07.2018 08:00:00 20,4 18,6 0 0 N 1022,0 0,0
14.07.2018 07:00:00 20,6 18,8 2 1 WNW 1022,2 -
14.07.2018 06:00:00 19,6 17,9 0 0 N 1022,2 -
14.07.2018 05:00:00 19,9 18,1 4 2 N 1022,0 -
14.07.2018 04:00:00 20,0 18,2 2 1 N 1022,0 -
14.07.2018 03:00:00 20,2 18,4 2 1 NNE 1022,0 -
14.07.2018 02:00:00 21,1 19,3 0 0 N 1021,9 0,0
14.07.2018 01:00:00 21,5 19,0 0 0 N 1021,7 -
14.07.2018 00:00:00 22,5 18,6 0 0 N 1021,6 -
13.07.2018 23:00:00 25,7 19,5 0 0 N 1020,9 -
13.07.2018 22:00:00 27,3 20,1 9 5 SSE 1020,4 -
13.07.2018 21:00:00 27,6 20,1 9 5 SSE 1020,4 -
13.07.2018 20:00:00 28,0 20,0 11 6 SE 1020,5 0,0
13.07.2018 19:00:00 28,2 20,7 5 3 SSE 1020,6 -
13.07.2018 18:00:00 29,2 19,2 4 2 SE 1020,8 -
13.07.2018 17:00:00 29,1 19,4 5 3 SE 1021,0 -
13.07.2018 16:00:00 28,2 18,2 8 4 WNW 1021,4 -
13.07.2018 15:00:00 27,6 18,5 4 2 NNE 1021,8 -
13.07.2018 14:00:00 26,3 18,6 5 3 NNW 1022,0 0,0
13.07.2018 13:00:00 25,7 19,0 4 2 N 1022,1 -

tt = temperature
td = dewpoint
ff = wind speed
dd = wind direction
ppp = reduced air pressure
rr = precipitation

Next stations